sensor_id;sensor_type;location;lat;lon;timestamp;P1;durP1;ratioP1;P2;durP2;ratioP2
69404;SDS011;57084;52.046;5.632;2023-02-01T11:46:02;19.0;;;2.4;;
69404;SDS011;57084;52.046;5.632;2023-02-01T11:49:14;12.1;;;2.3;;
69404;SDS011;57084;52.046;5.632;2023-02-01T11:50:02;12.1;;;2.3;;
69404;SDS011;57084;52.046;5.632;2023-02-01T11:51:14;12.1;;;2.3;;
69404;SDS011;57084;52.046;5.632;2023-02-01T11:52:09;12.1;;;2.3;;
69404;SDS011;57084;52.046;5.632;2023-02-01T11:53:15;12.1;;;2.3;;
69404;SDS011;57084;52.046;5.632;2023-02-01T11:54:11;14.2;;;2.5;;
69404;SDS011;57084;52.046;5.632;2023-02-01T11:55:14;14.2;;;2.5;;
69404;SDS011;57084;52.046;5.632;2023-02-01T11:56:05;14.2;;;2.5;;
69404;SDS011;57084;52.046;5.632;2023-02-01T11:57:12;14.2;;;2.5;;
69404;SDS011;57084;52.046;5.632;2023-02-01T11:58:11;14.2;;;2.5;;
69404;SDS011;57084;52.046;5.632;2023-02-01T11:59:13;17.0;;;2.6;;
69404;SDS011;57084;52.046;5.632;2023-02-01T12:00:10;17.0;;;2.6;;
69404;SDS011;57084;52.046;5.632;2023-02-01T12:01:13;17.0;;;2.6;;
69404;SDS011;57084;52.046;5.632;2023-02-01T12:02:11;17.0;;;2.6;;
69404;SDS011;57084;52.046;5.632;2023-02-01T12:03:18;17.0;;;2.6;;
69404;SDS011;57084;52.046;5.632;2023-02-01T12:04:13;10.2;;;2.0;;
69404;SDS011;57084;52.046;5.632;2023-02-01T12:05:08;10.2;;;2.0;;
69404;SDS011;57084;52.046;5.632;2023-02-01T12:06:06;10.2;;;2.0;;
69404;SDS011;57084;52.046;5.632;2023-02-01T12:07:04;10.2;;;2.0;;
69404;SDS011;57084;52.046;5.632;2023-02-01T12:08:09;10.2;;;2.0;;
69404;SDS011;57084;52.046;5.632;2023-02-01T12:09:13;14.3;;;2.1;;
69404;SDS011;57084;52.046;5.632;2023-02-01T12:10:04;14.3;;;2.1;;
69404;SDS011;57084;52.046;5.632;2023-02-01T12:11:17;14.3;;;2.1;;
69404;SDS011;57084;52.046;5.632;2023-02-01T12:12:08;14.3;;;2.1;;
69404;SDS011;57084;52.046;5.632;2023-02-01T12:13:12;14.3;;;2.1;;
69404;SDS011;57084;52.046;5.632;2023-02-01T12:14:06;13.4;;;3.3;;
69404;SDS011;57084;52.046;5.632;2023-02-01T12:15:08;13.4;;;3.3;;
69404;SDS011;57084;52.046;5.632;2023-02-01T12:16:12;13.4;;;3.3;;
69404;SDS011;57084;52.046;5.632;2023-02-01T12:17:18;13.4;;;3.3;;
69404;SDS011;57084;52.046;5.632;2023-02-01T12:18:11;13.4;;;3.3;;
69404;SDS011;57084;52.046;5.632;2023-02-01T12:19:09;14.0;;;2.3;;
69404;SDS011;57084;52.046;5.632;2023-02-01T12:20:09;14.0;;;2.3;;
69404;SDS011;57084;52.046;5.632;2023-02-01T12:21:17;14.0;;;2.3;;
69404;SDS011;57084;52.046;5.632;2023-02-01T12:22:11;14.0;;;2.3;;
69404;SDS011;57084;52.046;5.632;2023-02-01T12:23:11;14.0;;;2.3;;
69404;SDS011;57084;52.046;5.632;2023-02-01T12:24:16;11.7;;;2.2;;
69404;SDS011;57084;52.046;5.632;2023-02-01T12:25:15;11.7;;;2.2;;
69404;SDS011;57084;52.046;5.632;2023-02-01T12:26:08;11.7;;;2.2;;
69404;SDS011;57084;52.046;5.632;2023-02-01T12:27:10;11.7;;;2.2;;
69404;SDS011;57084;52.046;5.632;2023-02-01T12:28:15;11.7;;;2.2;;
69404;SDS011;57084;52.046;5.632;2023-02-01T12:29:13;18.1;;;2.4;;
69404;SDS011;57084;52.046;5.632;2023-02-01T12:30:13;18.1;;;2.4;;
69404;SDS011;57084;52.046;5.632;2023-02-01T12:31:09;18.1;;;2.4;;
69404;SDS011;57084;52.046;5.632;2023-02-01T12:32:07;18.1;;;2.4;;
69404;SDS011;57084;52.046;5.632;2023-02-01T12:33:09;18.1;;;2.4;;
69404;SDS011;57084;52.046;5.632;2023-02-01T12:34:14;13.6;;;2.1;;
69404;SDS011;57084;52.046;5.632;2023-02-01T12:35:13;13.6;;;2.1;;
69404;SDS011;57084;52.046;5.632;2023-02-01T12:36:09;13.6;;;2.1;;
69404;SDS011;57084;52.046;5.632;2023-02-01T12:37:11;13.6;;;2.1;;
69404;SDS011;57084;52.046;5.632;2023-02-01T12:38:09;13.6;;;2.1;;
69404;SDS011;57084;52.046;5.632;2023-02-01T12:39:10;11.6;;;2.3;;
69404;SDS011;57084;52.046;5.632;2023-02-01T12:40:11;11.6;;;2.3;;
69404;SDS011;57084;52.046;5.632;2023-02-01T12:41:12;11.6;;;2.3;;
69404;SDS011;57084;52.046;5.632;2023-02-01T12:42:03;11.6;;;2.3;;
69404;SDS011;57084;52.046;5.632;2023-02-01T12:43:04;11.6;;;2.3;;
69404;SDS011;57084;52.046;5.632;2023-02-01T12:44:03;11.5;;;2.3;;
69404;SDS011;57084;52.046;5.632;2023-02-01T12:45:09;11.5;;;2.3;;
69404;SDS011;57084;52.046;5.632;2023-02-01T12:46:04;11.5;;;2.3;;
69404;SDS011;57084;52.046;5.632;2023-02-01T12:47:05;11.5;;;2.3;;
69404;SDS011;57084;52.046;5.632;2023-02-01T12:48:08;11.5;;;2.3;;
69404;SDS011;57084;52.046;5.632;2023-02-01T12:49:03;13.3;;;2.3;;
69404;SDS011;57084;52.046;5.632;2023-02-01T12:50:02;13.3;;;2.3;;
69404;SDS011;57084;52.046;5.632;2023-02-01T12:51:02;13.3;;;2.3;;
69404;SDS011;57084;52.046;5.632;2023-02-01T12:52:03;13.3;;;2.3;;
69404;SDS011;57084;52.046;5.632;2023-02-01T12:53:08;13.3;;;2.3;;
69404;SDS011;57084;52.046;5.632;2023-02-01T12:54:04;13.1;;;2.5;;
69404;SDS011;57084;52.046;5.632;2023-02-01T12:55:06;13.1;;;2.5;;
69404;SDS011;57084;52.046;5.632;2023-02-01T12:56:03;13.1;;;2.5;;
69404;SDS011;57084;52.046;5.632;2023-02-01T12:57:02;13.1;;;2.5;;
69404;SDS011;57084;52.046;5.632;2023-02-01T12:58:12;13.1;;;2.5;;
69404;SDS011;57084;52.046;5.632;2023-02-01T12:59:03;9.8;;;1.9;;
69404;SDS011;57084;52.046;5.632;2023-02-01T13:00:15;9.8;;;1.9;;
69404;SDS011;57084;52.046;5.632;2023-02-01T13:01:03;9.8;;;1.9;;
69404;SDS011;57084;52.046;5.632;2023-02-01T13:02:06;9.8;;;1.9;;
69404;SDS011;57084;52.046;5.632;2023-02-01T13:03:04;9.8;;;1.9;;
69404;SDS011;57084;52.046;5.632;2023-02-01T13:04:05;13.7;;;2.1;;
69404;SDS011;57084;52.046;5.632;2023-02-01T13:05:04;13.7;;;2.1;;
69404;SDS011;57084;52.046;5.632;2023-02-01T13:06:02;13.7;;;2.1;;
69404;SDS011;57084;52.046;5.632;2023-02-01T13:07:06;13.7;;;2.1;;
69404;SDS011;57084;52.046;5.632;2023-02-01T13:08:03;13.7;;;2.1;;
69404;SDS011;57084;52.046;5.632;2023-02-01T13:09:05;14.9;;;2.2;;
69404;SDS011;57084;52.046;5.632;2023-02-01T13:10:03;14.9;;;2.2;;
69404;SDS011;57084;52.046;5.632;2023-02-01T13:11:06;14.9;;;2.2;;
69404;SDS011;57084;52.046;5.632;2023-02-01T13:12:05;14.9;;;2.2;;
69404;SDS011;57084;52.046;5.632;2023-02-01T13:13:05;14.9;;;2.2;;
69404;SDS011;57084;52.046;5.632;2023-02-01T13:14:03;13.3;;;2.4;;
69404;SDS011;57084;52.046;5.632;2023-02-01T13:15:03;13.3;;;2.4;;
69404;SDS011;57084;52.046;5.632;2023-02-01T13:16:06;13.3;;;2.4;;
69404;SDS011;57084;52.046;5.632;2023-02-01T13:17:04;13.3;;;2.4;;
69404;SDS011;57084;52.046;5.632;2023-02-01T13:18:04;13.3;;;2.4;;
69404;SDS011;57084;52.046;5.632;2023-02-01T13:19:09;10.5;;;2.2;;
69404;SDS011;57084;52.046;5.632;2023-02-01T13:20:05;10.5;;;2.2;;
69404;SDS011;57084;52.046;5.632;2023-02-01T13:21:04;10.5;;;2.2;;
69404;SDS011;57084;52.046;5.632;2023-02-01T13:22:07;10.5;;;2.2;;
69404;SDS011;57084;52.046;5.632;2023-02-01T13:23:03;10.5;;;2.2;;
69404;SDS011;57084;52.046;5.632;2023-02-01T13:24:00;10.5;;;2.2;;
69404;SDS011;57084;52.046;5.632;2023-02-01T13:25:02;14.3;;;2.2;;
69404;SDS011;57084;52.046;5.632;2023-02-01T13:26:00;14.3;;;2.2;;
69404;SDS011;57084;52.046;5.632;2023-02-01T13:27:00;14.3;;;2.2;;
69404;SDS011;57084;52.046;5.632;2023-02-01T13:28:04;14.3;;;2.2;;
69404;SDS011;57084;52.046;5.632;2023-02-01T13:29:03;14.3;;;2.2;;
69404;SDS011;57084;52.046;5.632;2023-02-01T13:30:03;12.2;;;2.3;;
69404;SDS011;57084;52.046;5.632;2023-02-01T13:31:17;12.2;;;2.3;;
69404;SDS011;57084;52.046;5.632;2023-02-01T13:32:10;12.2;;;2.3;;
69404;SDS011;57084;52.046;5.632;2023-02-01T13:33:14;12.2;;;2.3;;
69404;SDS011;57084;52.046;5.632;2023-02-01T13:35:09;13.4;;;2.2;;
69404;SDS011;57084;52.046;5.632;2023-02-01T13:36:15;13.4;;;2.2;;
69404;SDS011;57084;52.046;5.632;2023-02-01T13:37:10;13.4;;;2.2;;
69404;SDS011;57084;52.046;5.632;2023-02-01T13:38:08;13.4;;;2.2;;
69404;SDS011;57084;52.046;5.632;2023-02-01T13:39:32;13.4;;;2.2;;
69404;SDS011;57084;52.046;5.632;2023-02-01T13:40:16;9.9;;;1.9;;
69404;SDS011;57084;52.046;5.632;2023-02-01T13:41:14;9.9;;;1.9;;
69404;SDS011;57084;52.046;5.632;2023-02-01T13:42:02;9.9;;;1.9;;
69404;SDS011;57084;52.046;5.632;2023-02-01T13:43:05;9.9;;;1.9;;
69404;SDS011;57084;52.046;5.632;2023-02-01T13:44:03;9.9;;;1.9;;
69404;SDS011;57084;52.046;5.632;2023-02-01T13:45:04;15.0;;;2.1;;
69404;SDS011;57084;52.046;5.632;2023-02-01T13:46:04;15.0;;;2.1;;
69404;SDS011;57084;52.046;5.632;2023-02-01T13:47:02;15.0;;;2.1;;
69404;SDS011;57084;52.046;5.632;2023-02-01T13:49:02;15.0;;;2.1;;
69404;SDS011;57084;52.046;5.632;2023-02-01T13:50:03;6.8;;;1.6;;
69404;SDS011;57084;52.046;5.632;2023-02-01T13:51:00;6.8;;;1.6;;
69404;SDS011;57084;52.046;5.632;2023-02-01T13:52:00;6.8;;;1.6;;
69404;SDS011;57084;52.046;5.632;2023-02-01T13:53:02;6.8;;;1.6;;
69404;SDS011;57084;52.046;5.632;2023-02-01T13:54:00;6.8;;;1.6;;
69404;SDS011;57084;52.046;5.632;2023-02-01T13:55:01;13.6;;;2.2;;
69404;SDS011;57084;52.046;5.632;2023-02-01T13:56:02;13.6;;;2.2;;
69404;SDS011;57084;52.046;5.632;2023-02-01T13:57:01;13.6;;;2.2;;
69404;SDS011;57084;52.046;5.632;2023-02-01T13:58:05;13.6;;;2.2;;
69404;SDS011;57084;52.046;5.632;2023-02-01T14:00:22;13.6;;;2.4;;
69404;SDS011;57084;52.046;5.632;2023-02-01T14:02:35;13.6;;;2.4;;
69404;SDS011;57084;52.046;5.632;2023-02-01T14:03:06;13.6;;;2.4;;
69404;SDS011;57084;52.046;5.632;2023-02-01T14:04:01;13.6;;;2.4;;
69404;SDS011;57084;52.046;5.632;2023-02-01T14:05:00;8.9;;;1.7;;
69404;SDS011;57084;52.046;5.632;2023-02-01T14:06:03;8.9;;;1.7;;
69404;SDS011;57084;52.046;5.632;2023-02-01T14:07:00;8.9;;;1.7;;
69404;SDS011;57084;52.046;5.632;2023-02-01T14:08:10;8.9;;;1.7;;
69404;SDS011;57084;52.046;5.632;2023-02-01T14:09:18;8.9;;;1.7;;
69404;SDS011;57084;52.046;5.632;2023-02-01T14:11:00;12.5;;;1.7;;
69404;SDS011;57084;52.046;5.632;2023-02-01T14:13:04;12.5;;;1.7;;
69404;SDS011;57084;52.046;5.632;2023-02-01T14:14:37;12.5;;;1.7;;
69404;SDS011;57084;52.046;5.632;2023-02-01T14:15:17;9.9;;;1.6;;
69404;SDS011;57084;52.046;5.632;2023-02-01T14:16:11;9.9;;;1.6;;
69404;SDS011;57084;52.046;5.632;2023-02-01T14:17:29;9.9;;;1.6;;
69404;SDS011;57084;52.046;5.632;2023-02-01T14:18:00;9.9;;;1.6;;
69404;SDS011;57084;52.046;5.632;2023-02-01T14:19:00;9.9;;;1.6;;
69404;SDS011;57084;52.046;5.632;2023-02-01T14:21:12;10.7;;;1.9;;
69404;SDS011;57084;52.046;5.632;2023-02-01T14:22:31;10.7;;;1.9;;
69404;SDS011;57084;52.046;5.632;2023-02-01T14:23:01;10.7;;;1.9;;
69404;SDS011;57084;52.046;5.632;2023-02-01T14:24:01;10.7;;;1.9;;
69404;SDS011;57084;52.046;5.632;2023-02-01T14:25:00;20.8;;;2.5;;
69404;SDS011;57084;52.046;5.632;2023-02-01T14:26:11;20.8;;;2.5;;
69404;SDS011;57084;52.046;5.632;2023-02-01T14:27:02;20.8;;;2.5;;
69404;SDS011;57084;52.046;5.632;2023-02-01T14:28:01;20.8;;;2.5;;
69404;SDS011;57084;52.046;5.632;2023-02-01T14:29:03;20.8;;;2.5;;
69404;SDS011;57084;52.046;5.632;2023-02-01T14:30:02;11.7;;;2.2;;
69404;SDS011;57084;52.046;5.632;2023-02-01T14:31:00;11.7;;;2.2;;
69404;SDS011;57084;52.046;5.632;2023-02-01T14:32:03;11.7;;;2.2;;
69404;SDS011;57084;52.046;5.632;2023-02-01T14:33:12;11.7;;;2.2;;
69404;SDS011;57084;52.046;5.632;2023-02-01T14:34:04;11.7;;;2.2;;
69404;SDS011;57084;52.046;5.632;2023-02-01T14:35:02;14.0;;;2.2;;
69404;SDS011;57084;52.046;5.632;2023-02-01T14:36:05;14.0;;;2.2;;
69404;SDS011;57084;52.046;5.632;2023-02-01T14:37:03;14.0;;;2.2;;
69404;SDS011;57084;52.046;5.632;2023-02-01T14:38:01;14.0;;;2.2;;
69404;SDS011;57084;52.046;5.632;2023-02-01T14:39:00;14.0;;;2.2;;
69404;SDS011;57084;52.046;5.632;2023-02-01T14:40:01;12.3;;;2.0;;
69404;SDS011;57084;52.046;5.632;2023-02-01T14:41:11;12.3;;;2.0;;
69404;SDS011;57084;52.046;5.632;2023-02-01T14:42:04;12.3;;;2.0;;
69404;SDS011;57084;52.046;5.632;2023-02-01T14:43:00;12.3;;;2.0;;
69404;SDS011;57084;52.046;5.632;2023-02-01T14:44:21;12.3;;;2.0;;
69404;SDS011;57084;52.046;5.632;2023-02-01T14:46:00;11.1;;;2.3;;
69404;SDS011;57084;52.046;5.632;2023-02-01T14:47:33;11.1;;;2.3;;
69404;SDS011;57084;52.046;5.632;2023-02-01T14:49:00;11.1;;;2.3;;
69404;SDS011;57084;52.046;5.632;2023-02-01T14:50:10;15.9;;;2.4;;
69404;SDS011;57084;52.046;5.632;2023-02-01T14:51:01;15.9;;;2.4;;
69404;SDS011;57084;52.046;5.632;2023-02-01T14:52:02;15.9;;;2.4;;
69404;SDS011;57084;52.046;5.632;2023-02-01T14:53:15;15.9;;;2.4;;
69404;SDS011;57084;52.046;5.632;2023-02-01T14:54:00;15.9;;;2.4;;
69404;SDS011;57084;52.046;5.632;2023-02-01T14:55:05;14.4;;;2.3;;
69404;SDS011;57084;52.046;5.632;2023-02-01T14:56:06;14.4;;;2.3;;
69404;SDS011;57084;52.046;5.632;2023-02-01T14:57:00;14.4;;;2.3;;
69404;SDS011;57084;52.046;5.632;2023-02-01T14:58:02;14.4;;;2.3;;
69404;SDS011;57084;52.046;5.632;2023-02-01T14:59:02;14.4;;;2.3;;
69404;SDS011;57084;52.046;5.632;2023-02-01T15:00:07;11.9;;;2.4;;
69404;SDS011;57084;52.046;5.632;2023-02-01T15:01:02;11.9;;;2.4;;
69404;SDS011;57084;52.046;5.632;2023-02-01T15:02:00;11.9;;;2.4;;
69404;SDS011;57084;52.046;5.632;2023-02-01T15:03:15;11.9;;;2.4;;
69404;SDS011;57084;52.046;5.632;2023-02-01T15:04:05;11.9;;;2.4;;
69404;SDS011;57084;52.046;5.632;2023-02-01T15:05:00;12.2;;;2.3;;
69404;SDS011;57084;52.046;5.632;2023-02-01T15:06:00;12.2;;;2.3;;
69404;SDS011;57084;52.046;5.632;2023-02-01T15:07:05;12.2;;;2.3;;
69404;SDS011;57084;52.046;5.632;2023-02-01T15:08:04;12.2;;;2.3;;
69404;SDS011;57084;52.046;5.632;2023-02-01T15:09:04;12.2;;;2.3;;
69404;SDS011;57084;52.046;5.632;2023-02-01T15:10:01;9.9;;;2.0;;
69404;SDS011;57084;52.046;5.632;2023-02-01T15:11:02;9.9;;;2.0;;
69404;SDS011;57084;52.046;5.632;2023-02-01T15:12:03;9.9;;;2.0;;
69404;SDS011;57084;52.046;5.632;2023-02-01T15:13:00;9.9;;;2.0;;
69404;SDS011;57084;52.046;5.632;2023-02-01T15:14:00;9.9;;;2.0;;
69404;SDS011;57084;52.046;5.632;2023-02-01T15:15:11;10.0;;;2.0;;
69404;SDS011;57084;52.046;5.632;2023-02-01T15:16:03;10.0;;;2.0;;
69404;SDS011;57084;52.046;5.632;2023-02-01T15:17:00;10.0;;;2.0;;
69404;SDS011;57084;52.046;5.632;2023-02-01T15:18:00;10.0;;;2.0;;
69404;SDS011;57084;52.046;5.632;2023-02-01T15:19:08;10.0;;;2.0;;
69404;SDS011;57084;52.046;5.632;2023-02-01T15:20:03;10.0;;;2.0;;
69404;SDS011;57084;52.046;5.632;2023-02-01T15:21:01;9.3;;;1.9;;
69404;SDS011;57084;52.046;5.632;2023-02-01T15:22:00;9.3;;;1.9;;
69404;SDS011;57084;52.046;5.632;2023-02-01T15:23:01;9.3;;;1.9;;
69404;SDS011;57084;52.046;5.632;2023-02-01T15:24:10;9.3;;;1.9;;
69404;SDS011;57084;52.046;5.632;2023-02-01T15:25:00;9.3;;;1.9;;
69404;SDS011;57084;52.046;5.632;2023-02-01T15:26:00;8.2;;;2.0;;
69404;SDS011;57084;52.046;5.632;2023-02-01T15:27:03;8.2;;;2.0;;
69404;SDS011;57084;52.046;5.632;2023-02-01T15:28:00;8.2;;;2.0;;
69404;SDS011;57084;52.046;5.632;2023-02-01T15:29:00;8.2;;;2.0;;
69404;SDS011;57084;52.046;5.632;2023-02-01T15:30:05;8.2;;;2.0;;
69404;SDS011;57084;52.046;5.632;2023-02-01T15:31:02;15.1;;;2.1;;
69404;SDS011;57084;52.046;5.632;2023-02-01T15:32:00;15.1;;;2.1;;
69404;SDS011;57084;52.046;5.632;2023-02-01T15:33:05;15.1;;;2.1;;
69404;SDS011;57084;52.046;5.632;2023-02-01T15:34:00;15.1;;;2.1;;
69404;SDS011;57084;52.046;5.632;2023-02-01T15:35:01;15.1;;;2.1;;
69404;SDS011;57084;52.046;5.632;2023-02-01T15:36:09;11.7;;;2.2;;
69404;SDS011;57084;52.046;5.632;2023-02-01T15:37:04;11.7;;;2.2;;
69404;SDS011;57084;52.046;5.632;2023-02-01T15:39:12;11.7;;;2.2;;
69404;SDS011;57084;52.046;5.632;2023-02-01T15:40:14;11.7;;;2.2;;
69404;SDS011;57084;52.046;5.632;2023-02-01T15:41:02;14.9;;;2.5;;
69404;SDS011;57084;52.046;5.632;2023-02-01T15:42:08;14.9;;;2.5;;
69404;SDS011;57084;52.046;5.632;2023-02-01T15:43:00;14.9;;;2.5;;
69404;SDS011;57084;52.046;5.632;2023-02-01T15:44:10;14.9;;;2.5;;
69404;SDS011;57084;52.046;5.632;2023-02-01T15:45:00;14.9;;;2.5;;
69404;SDS011;57084;52.046;5.632;2023-02-01T15:46:01;11.1;;;2.3;;
69404;SDS011;57084;52.046;5.632;2023-02-01T15:47:06;11.1;;;2.3;;
69404;SDS011;57084;52.046;5.632;2023-02-01T15:48:00;11.1;;;2.3;;
69404;SDS011;57084;52.046;5.632;2023-02-01T15:49:00;11.1;;;2.3;;
69404;SDS011;57084;52.046;5.632;2023-02-01T15:50:01;11.1;;;2.3;;
69404;SDS011;57084;52.046;5.632;2023-02-01T15:51:00;14.7;;;2.0;;
69404;SDS011;57084;52.046;5.632;2023-02-01T15:52:01;14.7;;;2.0;;
69404;SDS011;57084;52.046;5.632;2023-02-01T15:53:00;14.7;;;2.0;;
69404;SDS011;57084;52.046;5.632;2023-02-01T15:54:02;14.7;;;2.0;;
69404;SDS011;57084;52.046;5.632;2023-02-01T15:55:02;14.7;;;2.0;;
69404;SDS011;57084;52.046;5.632;2023-02-01T15:56:02;13.4;;;2.3;;
69404;SDS011;57084;52.046;5.632;2023-02-01T15:57:01;13.4;;;2.3;;
69404;SDS011;57084;52.046;5.632;2023-02-01T15:58:00;13.4;;;2.3;;
69404;SDS011;57084;52.046;5.632;2023-02-01T15:59:01;13.4;;;2.3;;
69404;SDS011;57084;52.046;5.632;2023-02-01T16:00:02;13.4;;;2.3;;
69404;SDS011;57084;52.046;5.632;2023-02-01T16:01:02;15.0;;;2.2;;
69404;SDS011;57084;52.046;5.632;2023-02-01T16:02:00;15.0;;;2.2;;
69404;SDS011;57084;52.046;5.632;2023-02-01T16:03:01;15.0;;;2.2;;
69404;SDS011;57084;52.046;5.632;2023-02-01T16:04:12;15.0;;;2.2;;
69404;SDS011;57084;52.046;5.632;2023-02-01T16:05:02;15.0;;;2.2;;
69404;SDS011;57084;52.046;5.632;2023-02-01T16:06:02;12.4;;;2.1;;
69404;SDS011;57084;52.046;5.632;2023-02-01T16:07:02;12.4;;;2.1;;
69404;SDS011;57084;52.046;5.632;2023-02-01T16:08:03;12.4;;;2.1;;
69404;SDS011;57084;52.046;5.632;2023-02-01T16:09:07;12.4;;;2.1;;
69404;SDS011;57084;52.046;5.632;2023-02-01T16:10:02;12.4;;;2.1;;
69404;SDS011;57084;52.046;5.632;2023-02-01T16:11:14;10.3;;;1.7;;
69404;SDS011;57084;52.046;5.632;2023-02-01T16:12:01;10.3;;;1.7;;
69404;SDS011;57084;52.046;5.632;2023-02-01T16:13:00;10.3;;;1.7;;
69404;SDS011;57084;52.046;5.632;2023-02-01T16:14:00;10.3;;;1.7;;
69404;SDS011;57084;52.046;5.632;2023-02-01T16:15:00;10.3;;;1.7;;
69404;SDS011;57084;52.046;5.632;2023-02-01T16:16:00;14.2;;;2.1;;
69404;SDS011;57084;52.046;5.632;2023-02-01T16:17:00;14.2;;;2.1;;
69404;SDS011;57084;52.046;5.632;2023-02-01T16:18:00;14.2;;;2.1;;
69404;SDS011;57084;52.046;5.632;2023-02-01T16:19:00;14.2;;;2.1;;
69404;SDS011;57084;52.046;5.632;2023-02-01T16:20:00;14.2;;;2.1;;
69404;SDS011;57084;52.046;5.632;2023-02-01T16:21:00;8.0;;;2.1;;
69404;SDS011;57084;52.046;5.632;2023-02-01T16:22:00;8.0;;;2.1;;
69404;SDS011;57084;52.046;5.632;2023-02-01T16:23:00;8.0;;;2.1;;
69404;SDS011;57084;52.046;5.632;2023-02-01T16:24:00;8.0;;;2.1;;
69404;SDS011;57084;52.046;5.632;2023-02-01T16:25:00;8.0;;;2.1;;
69404;SDS011;57084;52.046;5.632;2023-02-01T16:26:00;11.2;;;2.1;;
69404;SDS011;57084;52.046;5.632;2023-02-01T16:27:00;11.2;;;2.1;;
69404;SDS011;57084;52.046;5.632;2023-02-01T16:28:00;11.2;;;2.1;;
69404;SDS011;57084;52.046;5.632;2023-02-01T16:29:00;11.2;;;2.1;;
69404;SDS011;57084;52.046;5.632;2023-02-01T16:30:00;11.2;;;2.1;;
69404;SDS011;57084;52.046;5.632;2023-02-01T16:31:00;10.8;;;1.9;;
69404;SDS011;57084;52.046;5.632;2023-02-01T16:32:00;10.8;;;1.9;;
69404;SDS011;57084;52.046;5.632;2023-02-01T16:33:01;10.8;;;1.9;;
69404;SDS011;57084;52.046;5.632;2023-02-01T16:34:00;10.8;;;1.9;;
69404;SDS011;57084;52.046;5.632;2023-02-01T16:35:00;10.8;;;1.9;;
69404;SDS011;57084;52.046;5.632;2023-02-01T16:36:00;10.1;;;1.9;;
69404;SDS011;57084;52.046;5.632;2023-02-01T16:37:00;10.1;;;1.9;;
69404;SDS011;57084;52.046;5.632;2023-02-01T16:38:00;10.1;;;1.9;;
69404;SDS011;57084;52.046;5.632;2023-02-01T16:39:00;10.1;;;1.9;;
69404;SDS011;57084;52.046;5.632;2023-02-01T16:40:00;10.1;;;1.9;;
69404;SDS011;57084;52.046;5.632;2023-02-01T16:41:00;9.1;;;2.1;;
69404;SDS011;57084;52.046;5.632;2023-02-01T16:42:00;9.1;;;2.1;;
69404;SDS011;57084;52.046;5.632;2023-02-01T16:43:00;9.1;;;2.1;;
69404;SDS011;57084;52.046;5.632;2023-02-01T16:44:00;9.1;;;2.1;;
69404;SDS011;57084;52.046;5.632;2023-02-01T16:45:00;9.1;;;2.1;;
69404;SDS011;57084;52.046;5.632;2023-02-01T16:46:01;13.4;;;2.2;;
69404;SDS011;57084;52.046;5.632;2023-02-01T16:47:00;13.4;;;2.2;;
69404;SDS011;57084;52.046;5.632;2023-02-01T16:48:00;13.4;;;2.2;;
69404;SDS011;57084;52.046;5.632;2023-02-01T16:49:00;13.4;;;2.2;;
69404;SDS011;57084;52.046;5.632;2023-02-01T16:50:00;13.4;;;2.2;;
69404;SDS011;57084;52.046;5.632;2023-02-01T16:51:01;10.6;;;1.9;;
69404;SDS011;57084;52.046;5.632;2023-02-01T16:52:00;10.6;;;1.9;;
69404;SDS011;57084;52.046;5.632;2023-02-01T16:53:01;10.6;;;1.9;;
69404;SDS011;57084;52.046;5.632;2023-02-01T16:54:01;10.6;;;1.9;;
69404;SDS011;57084;52.046;5.632;2023-02-01T16:55:00;10.6;;;1.9;;
69404;SDS011;57084;52.046;5.632;2023-02-01T16:56:00;9.8;;;2.2;;
69404;SDS011;57084;52.046;5.632;2023-02-01T16:57:00;9.8;;;2.2;;
69404;SDS011;57084;52.046;5.632;2023-02-01T16:58:00;9.8;;;2.2;;
69404;SDS011;57084;52.046;5.632;2023-02-01T16:59:00;9.8;;;2.2;;
69404;SDS011;57084;52.046;5.632;2023-02-01T17:00:00;9.8;;;2.2;;
69404;SDS011;57084;52.046;5.632;2023-02-01T17:01:00;12.5;;;1.8;;
69404;SDS011;57084;52.046;5.632;2023-02-01T17:02:00;12.5;;;1.8;;
69404;SDS011;57084;52.046;5.632;2023-02-01T17:03:00;12.5;;;1.8;;
69404;SDS011;57084;52.046;5.632;2023-02-01T17:04:00;12.5;;;1.8;;
69404;SDS011;57084;52.046;5.632;2023-02-01T17:05:00;12.5;;;1.8;;
69404;SDS011;57084;52.046;5.632;2023-02-01T17:06:00;10.0;;;2.0;;
69404;SDS011;57084;52.046;5.632;2023-02-01T17:07:00;10.0;;;2.0;;
69404;SDS011;57084;52.046;5.632;2023-02-01T17:08:03;10.0;;;2.0;;
69404;SDS011;57084;52.046;5.632;2023-02-01T17:09:00;10.0;;;2.0;;
69404;SDS011;57084;52.046;5.632;2023-02-01T17:10:00;10.0;;;2.0;;
69404;SDS011;57084;52.046;5.632;2023-02-01T17:11:00;9.5;;;2.1;;
69404;SDS011;57084;52.046;5.632;2023-02-01T17:12:00;9.5;;;2.1;;
69404;SDS011;57084;52.046;5.632;2023-02-01T17:13:00;9.5;;;2.1;;
69404;SDS011;57084;52.046;5.632;2023-02-01T17:14:01;9.5;;;2.1;;
69404;SDS011;57084;52.046;5.632;2023-02-01T17:15:00;9.5;;;2.1;;
69404;SDS011;57084;52.046;5.632;2023-02-01T17:16:03;9.5;;;2.1;;
69404;SDS011;57084;52.046;5.632;2023-02-01T17:17:00;18.7;;;2.6;;
69404;SDS011;57084;52.046;5.632;2023-02-01T17:18:00;18.7;;;2.6;;
69404;SDS011;57084;52.046;5.632;2023-02-01T17:19:03;18.7;;;2.6;;
69404;SDS011;57084;52.046;5.632;2023-02-01T17:20:00;18.7;;;2.6;;
69404;SDS011;57084;52.046;5.632;2023-02-01T17:21:01;18.7;;;2.6;;
69404;SDS011;57084;52.046;5.632;2023-02-01T17:22:00;16.3;;;2.2;;
69404;SDS011;57084;52.046;5.632;2023-02-01T17:23:00;16.3;;;2.2;;
69404;SDS011;57084;52.046;5.632;2023-02-01T17:24:00;16.3;;;2.2;;
69404;SDS011;57084;52.046;5.632;2023-02-01T17:25:00;16.3;;;2.2;;
69404;SDS011;57084;52.046;5.632;2023-02-01T17:26:00;16.3;;;2.2;;
69404;SDS011;57084;52.046;5.632;2023-02-01T17:27:00;10.1;;;2.2;;
69404;SDS011;57084;52.046;5.632;2023-02-01T17:28:00;10.1;;;2.2;;
69404;SDS011;57084;52.046;5.632;2023-02-01T17:29:00;10.1;;;2.2;;
69404;SDS011;57084;52.046;5.632;2023-02-01T17:30:00;10.1;;;2.2;;
69404;SDS011;57084;52.046;5.632;2023-02-01T17:31:00;10.1;;;2.2;;
69404;SDS011;57084;52.046;5.632;2023-02-01T17:32:00;12.8;;;2.3;;
69404;SDS011;57084;52.046;5.632;2023-02-01T17:33:00;12.8;;;2.3;;
69404;SDS011;57084;52.046;5.632;2023-02-01T17:34:00;12.8;;;2.3;;
69404;SDS011;57084;52.046;5.632;2023-02-01T17:35:00;12.8;;;2.3;;
69404;SDS011;57084;52.046;5.632;2023-02-01T17:36:00;12.8;;;2.3;;
69404;SDS011;57084;52.046;5.632;2023-02-01T17:37:00;8.7;;;1.7;;
69404;SDS011;57084;52.046;5.632;2023-02-01T17:38:00;8.7;;;1.7;;
69404;SDS011;57084;52.046;5.632;2023-02-01T17:39:00;8.7;;;1.7;;
69404;SDS011;57084;52.046;5.632;2023-02-01T17:40:00;8.7;;;1.7;;
69404;SDS011;57084;52.046;5.632;2023-02-01T17:41:00;8.7;;;1.7;;
69404;SDS011;57084;52.046;5.632;2023-02-01T17:42:00;10.1;;;2.0;;
69404;SDS011;57084;52.046;5.632;2023-02-01T17:43:00;10.1;;;2.0;;
69404;SDS011;57084;52.046;5.632;2023-02-01T17:44:00;10.1;;;2.0;;
69404;SDS011;57084;52.046;5.632;2023-02-01T17:45:01;10.1;;;2.0;;
69404;SDS011;57084;52.046;5.632;2023-02-01T17:46:03;10.1;;;2.0;;
69404;SDS011;57084;52.046;5.632;2023-02-01T17:47:00;15.8;;;2.3;;
69404;SDS011;57084;52.046;5.632;2023-02-01T17:48:00;15.8;;;2.3;;
69404;SDS011;57084;52.046;5.632;2023-02-01T17:49:00;15.8;;;2.3;;
69404;SDS011;57084;52.046;5.632;2023-02-01T17:50:00;15.8;;;2.3;;
69404;SDS011;57084;52.046;5.632;2023-02-01T17:51:00;15.8;;;2.3;;
69404;SDS011;57084;52.046;5.632;2023-02-01T17:52:00;14.3;;;2.0;;
69404;SDS011;57084;52.046;5.632;2023-02-01T17:53:00;14.3;;;2.0;;
69404;SDS011;57084;52.046;5.632;2023-02-01T17:54:00;14.3;;;2.0;;
69404;SDS011;57084;52.046;5.632;2023-02-01T17:55:00;14.3;;;2.0;;
69404;SDS011;57084;52.046;5.632;2023-02-01T17:56:00;14.3;;;2.0;;
69404;SDS011;57084;52.046;5.632;2023-02-01T17:57:00;11.1;;;2.0;;
69404;SDS011;57084;52.046;5.632;2023-02-01T17:58:00;11.1;;;2.0;;
69404;SDS011;57084;52.046;5.632;2023-02-01T17:59:00;11.1;;;2.0;;
69404;SDS011;57084;52.046;5.632;2023-02-01T18:00:00;11.1;;;2.0;;
69404;SDS011;57084;52.046;5.632;2023-02-01T18:01:00;11.1;;;2.0;;
69404;SDS011;57084;52.046;5.632;2023-02-01T18:02:00;14.3;;;2.1;;
69404;SDS011;57084;52.046;5.632;2023-02-01T18:03:00;14.3;;;2.1;;
69404;SDS011;57084;52.046;5.632;2023-02-01T18:04:00;14.3;;;2.1;;
69404;SDS011;57084;52.046;5.632;2023-02-01T18:05:00;14.3;;;2.1;;